createdAt,value
2022-10-11T00:02:11.517Z,73.19
2022-10-11T00:04:38.561Z,71.19
2022-10-11T00:07:05.470Z,70.26
2022-10-11T00:09:32.442Z,71.62
2022-10-11T00:11:59.436Z,72.63
2022-10-11T00:14:27.664Z,73.11
2022-10-11T00:16:54.651Z,73.00
2022-10-11T00:19:22.096Z,71.39
2022-10-11T00:21:49.036Z,71.02
2022-10-11T00:24:16.918Z,71.77
2022-10-11T00:26:47.024Z,74.82
2022-10-11T00:29:14.561Z,75.45
2022-10-11T00:31:41.511Z,75.78
2022-10-11T00:34:10.234Z,73.98
2022-10-11T00:36:37.147Z,71.92
2022-10-11T00:39:04.981Z,71.46
2022-10-11T00:41:31.840Z,71.19
2022-10-11T00:44:14.968Z,68.70
2022-10-11T00:46:46.088Z,69.72
2022-10-11T00:49:26.174Z,71.84
2022-10-11T00:51:57.132Z,73.06
2022-10-11T00:54:27.134Z,73.17
2022-10-11T00:56:59.826Z,73.63
2022-10-11T00:59:30.959Z,74.49
2022-10-11T01:01:57.944Z,73.93
2022-10-11T01:04:24.890Z,74.03
2022-10-11T01:06:53.257Z,73.72
2022-10-11T01:09:21.395Z,74.23
2022-10-11T01:11:51.361Z,73.45
2022-10-11T01:14:38.259Z,73.04
2022-10-11T01:17:13.929Z,73.08
2022-10-11T01:20:32.073Z,72.55
2022-10-11T01:23:36.857Z,72.79
2022-10-11T01:26:16.098Z,74.03
2022-10-11T01:29:01.355Z,74.46
2022-10-11T01:31:43.605Z,72.34
2022-10-11T01:34:19.615Z,70.82
2022-10-11T01:37:13.518Z,71.91
2022-10-11T01:39:59.279Z,70.88
2022-10-11T01:42:27.279Z,71.28
2022-10-11T01:44:55.182Z,73.70
2022-10-11T01:47:23.615Z,71.92
2022-10-11T01:49:59.029Z,72.14
2022-10-11T01:52:29.193Z,72.18
2022-10-11T01:55:27.772Z,72.15
2022-10-11T01:58:14.318Z,71.45
2022-10-11T02:00:55.557Z,71.55
2022-10-11T02:03:47.192Z,72.63
2022-10-11T02:06:51.360Z,71.31
2022-10-11T02:09:29.668Z,71.54
2022-10-11T02:12:02.312Z,73.84
2022-10-11T02:14:35.644Z,76.18
2022-10-11T02:17:07.929Z,77.66
2022-10-11T02:19:39.595Z,78.34
2022-10-11T02:22:15.090Z,78.90
2022-10-11T02:24:47.161Z,79.66
2022-10-11T02:27:17.317Z,80.14
2022-10-11T02:29:45.369Z,77.29
2022-10-11T02:32:14.066Z,76.51
2022-10-11T02:34:47.605Z,77.70
2022-10-11T02:37:29.646Z,77.58
2022-10-11T02:40:02.381Z,77.34
2022-10-11T02:42:37.206Z,77.42
2022-10-11T02:45:14.873Z,76.46
2022-10-11T02:47:43.528Z,75.96
2022-10-11T02:50:14.645Z,75.65
2022-10-11T02:52:41.646Z,75.93
2022-10-11T02:55:09.097Z,75.68
2022-10-11T02:57:35.961Z,75.29
2022-10-11T03:00:03.970Z,75.87
2022-10-11T03:02:30.877Z,77.05
2022-10-11T03:04:57.758Z,77.53
2022-10-11T03:07:24.837Z,76.83
2022-10-11T03:09:51.718Z,77.53
2022-10-11T03:12:18.580Z,78.89
2022-10-11T03:14:45.536Z,78.64
2022-10-11T03:17:35.177Z,77.70
2022-10-11T03:19:59.343Z,78.74
2022-10-11T03:22:26.258Z,78.26
2022-10-11T03:24:53.199Z,77.09
2022-10-11T03:27:20.040Z,76.70
2022-10-11T03:29:46.898Z,77.10
2022-10-11T03:32:13.797Z,77.29
2022-10-11T03:34:40.657Z,75.82
2022-10-11T03:37:07.560Z,75.15
2022-10-11T03:39:34.669Z,77.67
2022-10-11T03:42:01.523Z,80.34
2022-10-11T03:44:28.393Z,80.36
2022-10-11T03:46:55.304Z,79.49
2022-10-11T03:49:22.215Z,77.46
2022-10-11T03:51:49.067Z,76.51
2022-10-11T03:54:16.083Z,77.55
2022-10-11T03:56:42.933Z,78.25
2022-10-11T03:59:10.743Z,81.09
2022-10-11T04:01:38.657Z,82.06
2022-10-11T04:04:06.014Z,83.13
2022-10-11T04:06:33.487Z,79.93
2022-10-11T04:09:00.514Z,80.32
2022-10-11T04:11:27.478Z,82.39
2022-10-11T04:13:54.376Z,81.32
2022-10-11T04:16:21.266Z,77.34
2022-10-11T04:18:48.181Z,78.06
2022-10-11T04:21:15.063Z,77.17
2022-10-11T04:23:41.962Z,74.96
2022-10-11T04:26:09.153Z,74.92
2022-10-11T04:28:36.376Z,75.10
2022-10-11T04:31:05.279Z,76.33
2022-10-11T04:33:32.413Z,77.34
2022-10-11T04:35:59.370Z,75.63
2022-10-11T04:38:26.205Z,72.98
2022-10-11T04:40:53.099Z,70.10
2022-10-11T04:43:20.121Z,66.93
2022-10-11T04:45:46.987Z,63.66
2022-10-11T04:48:14.320Z,58.74
2022-10-11T04:50:41.272Z,56.80
2022-10-11T04:53:08.382Z,54.88
2022-10-11T04:55:35.356Z,53.29
2022-10-11T04:58:02.319Z,53.52
2022-10-11T05:00:29.274Z,52.69
2022-10-11T05:02:56.336Z,50.01
2022-10-11T05:05:23.230Z,47.42
2022-10-11T05:07:50.110Z,46.31
2022-10-11T05:10:17.225Z,46.23
2022-10-11T05:12:44.325Z,43.09
2022-10-11T05:15:11.219Z,42.47
2022-10-11T05:17:38.187Z,41.95
2022-10-11T05:20:05.581Z,40.08
2022-10-11T05:22:32.502Z,38.09
2022-10-11T05:24:59.366Z,38.47
2022-10-11T05:27:26.261Z,41.15
2022-10-11T05:29:53.182Z,44.33
2022-10-11T05:32:20.091Z,45.97
2022-10-11T05:34:47.201Z,49.38
2022-10-11T05:37:14.114Z,49.29
2022-10-11T05:39:41.053Z,46.96
2022-10-11T05:42:10.053Z,44.20
2022-10-11T05:44:37.067Z,40.01
2022-10-11T05:47:04.001Z,38.03
2022-10-11T05:49:31.011Z,36.42
2022-10-11T05:51:57.988Z,38.50
2022-10-11T05:54:24.931Z,39.99
2022-10-11T05:56:51.828Z,39.15
2022-10-11T05:59:18.731Z,37.20
2022-10-11T06:01:45.703Z,36.99
2022-10-11T06:04:12.921Z,34.81
2022-10-11T06:06:39.846Z,32.12
2022-10-11T06:09:06.782Z,29.75
2022-10-11T06:11:34.214Z,29.15
2022-10-11T06:14:01.143Z,30.02
2022-10-11T06:16:28.175Z,31.46
2022-10-11T06:18:56.549Z,30.60
2022-10-11T06:21:24.589Z,30.53
2022-10-11T06:23:56.855Z,29.10
2022-10-11T06:26:26.991Z,27.15
2022-10-11T06:28:54.015Z,28.00
2022-10-11T06:31:20.990Z,28.24
2022-10-11T06:33:47.874Z,29.76
2022-10-11T06:36:17.034Z,30.52
2022-10-11T06:38:45.463Z,29.74
2022-10-11T06:41:33.015Z,31.62
2022-10-11T06:44:00.161Z,32.43
2022-10-11T06:46:28.129Z,31.19
2022-10-11T06:48:56.549Z,31.78
2022-10-11T06:51:23.811Z,33.48
2022-10-11T06:53:52.520Z,33.67
2022-10-11T06:56:19.885Z,33.93
2022-10-11T06:58:47.399Z,34.53
2022-10-11T07:01:20.759Z,32.31
2022-10-11T07:03:48.534Z,35.10
2022-10-11T07:06:21.951Z,36.75
2022-10-11T07:08:49.740Z,36.89
2022-10-11T07:11:19.265Z,38.66
2022-10-11T07:14:12.615Z,38.21
2022-10-11T07:16:39.570Z,41.12
2022-10-11T07:19:06.981Z,39.98
2022-10-11T07:21:35.164Z,42.22
2022-10-11T07:24:02.758Z,42.97
2022-10-11T07:26:35.287Z,42.10
2022-10-11T07:29:05.904Z,41.95
2022-10-11T07:31:33.059Z,41.87
2022-10-11T07:33:59.987Z,42.16
2022-10-11T07:36:45.578Z,42.38
2022-10-11T07:39:12.701Z,41.35
2022-10-11T07:41:44.618Z,41.00
2022-10-11T07:44:12.497Z,41.80
2022-10-11T07:46:39.504Z,39.84
2022-10-11T07:49:06.568Z,36.36
2022-10-11T07:51:33.541Z,37.05
2022-10-11T07:54:04.720Z,37.97
2022-10-11T07:56:33.852Z,37.21
2022-10-11T07:59:03.666Z,37.97
2022-10-11T08:01:31.660Z,40.61
2022-10-11T08:03:59.261Z,41.63
2022-10-11T08:06:31.707Z,40.30
2022-10-11T08:09:00.739Z,39.20
2022-10-11T08:11:34.254Z,40.39
2022-10-11T08:14:04.646Z,38.78
2022-10-11T08:16:31.567Z,37.15
2022-10-11T08:18:58.558Z,38.36
2022-10-11T08:21:26.970Z,37.46
2022-10-11T08:23:53.894Z,37.19
2022-10-11T08:26:21.268Z,39.28
2022-10-11T08:28:48.248Z,39.17
2022-10-11T08:31:16.317Z,41.41
2022-10-11T08:33:43.694Z,41.14
2022-10-11T08:36:11.764Z,41.62
2022-10-11T08:38:39.362Z,39.71
2022-10-11T08:41:27.853Z,41.06
2022-10-11T08:44:19.726Z,40.93
2022-10-11T08:46:53.233Z,38.55
2022-10-11T08:49:26.960Z,40.55
2022-10-11T08:52:02.773Z,41.36
2022-10-11T08:54:39.243Z,41.35
2022-10-11T08:57:10.171Z,42.10
2022-10-11T08:59:43.386Z,41.01
2022-10-11T09:02:25.701Z,40.53
2022-10-11T09:04:54.833Z,42.54
2022-10-11T09:07:49.963Z,43.55
2022-10-11T09:10:34.874Z,43.27
2022-10-11T09:13:07.948Z,42.79
2022-10-11T09:15:59.280Z,41.05
2022-10-11T09:19:01.623Z,42.25
2022-10-11T09:21:35.188Z,41.35
2022-10-11T09:24:20.834Z,38.57
2022-10-11T09:27:18.429Z,39.16
2022-10-11T09:30:02.753Z,39.26
2022-10-11T09:32:36.180Z,40.52
2022-10-11T09:35:14.034Z,39.70
2022-10-11T09:37:59.434Z,40.28
2022-10-11T09:40:44.823Z,40.92
2022-10-11T09:43:12.408Z,41.91
2022-10-11T09:45:49.272Z,40.88
2022-10-11T09:48:37.825Z,42.41
2022-10-11T09:51:21.228Z,41.95
2022-10-11T09:53:56.488Z,39.88
2022-10-11T09:56:25.488Z,37.76
2022-10-11T09:59:24.243Z,37.74
2022-10-11T10:02:16.773Z,38.59
2022-10-11T10:05:12.791Z,39.83
2022-10-11T10:07:41.277Z,39.34
2022-10-11T10:10:34.910Z,39.12
2022-10-11T10:13:06.055Z,38.50
2022-10-11T10:15:37.748Z,39.90
2022-10-11T10:18:10.618Z,40.87
2022-10-11T10:20:38.675Z,40.83
2022-10-11T10:23:19.501Z,39.90
2022-10-11T10:25:51.859Z,39.80
2022-10-11T10:28:24.152Z,39.61
2022-10-11T10:30:58.883Z,38.38
2022-10-11T10:33:31.331Z,38.14
2022-10-11T10:36:08.112Z,37.87
2022-10-11T10:38:43.138Z,37.90
2022-10-11T10:41:14.158Z,36.59
2022-10-11T10:43:43.638Z,37.20
2022-10-11T10:46:21.293Z,36.95
2022-10-11T10:49:41.259Z,37.61
2022-10-11T10:52:08.341Z,38.24
2022-10-11T10:55:00.468Z,38.82
2022-10-11T10:57:33.008Z,39.77
2022-10-11T11:00:09.981Z,36.73
2022-10-11T11:02:58.041Z,38.03
2022-10-11T11:05:51.805Z,36.74
2022-10-11T11:08:33.493Z,36.51
2022-10-11T11:11:06.433Z,37.58
2022-10-11T11:13:54.528Z,37.93
2022-10-11T11:16:39.066Z,39.10
2022-10-11T11:19:20.911Z,34.58
2022-10-11T11:22:14.827Z,32.34
2022-10-11T11:25:00.487Z,35.21
2022-10-11T11:28:06.423Z,37.16
2022-10-11T11:30:57.494Z,36.86
2022-10-11T11:33:49.657Z,35.96
2022-10-11T11:36:38.780Z,38.57
2022-10-11T11:39:11.616Z,41.46
2022-10-11T11:41:43.686Z,41.46
2022-10-11T11:44:27.483Z,43.94
2022-10-11T11:47:03.980Z,44.10
2022-10-11T11:49:54.293Z,43.98
2022-10-11T11:52:33.782Z,43.94
2022-10-11T11:55:33.562Z,44.37
2022-10-11T11:58:21.825Z,45.81
2022-10-11T12:01:05.562Z,46.94
2022-10-11T12:03:42.045Z,47.88
2022-10-11T12:06:14.739Z,48.69
2022-10-11T12:08:44.940Z,47.55
2022-10-11T12:11:25.616Z,49.25
2022-10-11T12:13:55.997Z,50.69
2022-10-11T12:16:23.565Z,51.10
2022-10-11T12:18:52.518Z,50.74
2022-10-11T12:21:26.498Z,51.18
2022-10-11T12:23:59.960Z,51.00
2022-10-11T12:26:29.887Z,50.85
2022-10-11T12:29:17.138Z,51.33
2022-10-11T12:32:28.729Z,50.67
2022-10-11T12:35:33.509Z,50.51
2022-10-11T12:38:15.548Z,49.45
2022-10-11T12:40:47.340Z,48.34
2022-10-11T12:43:14.324Z,49.38
2022-10-11T12:45:47.866Z,49.74
2022-10-11T12:49:03.927Z,49.73
2022-10-11T12:51:47.109Z,49.44
2022-10-11T12:54:41.935Z,50.04
2022-10-11T12:57:12.016Z,50.16
2022-10-11T12:59:45.189Z,51.13
2022-10-11T13:02:44.306Z,51.52
2022-10-11T13:05:45.063Z,51.46
2022-10-11T13:08:18.815Z,50.73
2022-10-11T13:10:47.458Z,51.27
2022-10-11T13:13:25.020Z,53.54
2022-10-11T13:15:56.806Z,53.84
2022-10-11T13:18:26.401Z,54.06
2022-10-11T13:20:53.361Z,54.45
2022-10-11T13:23:26.064Z,54.65
2022-10-11T13:25:54.038Z,54.21
2022-10-11T13:28:22.288Z,54.79
2022-10-11T13:30:53.518Z,54.63
2022-10-11T13:33:25.331Z,54.06
2022-10-11T13:35:52.970Z,54.39
2022-10-11T13:38:26.825Z,55.52
2022-10-11T13:40:56.105Z,55.39
2022-10-11T13:43:27.465Z,55.11
2022-10-11T13:45:55.897Z,53.88
2022-10-11T13:48:22.875Z,54.50
2022-10-11T13:51:17.077Z,55.30
2022-10-11T13:54:05.174Z,56.76
2022-10-11T13:56:37.661Z,57.47
2022-10-11T13:59:05.201Z,57.09
2022-10-11T14:01:45.305Z,57.42
2022-10-11T14:04:17.578Z,57.79
2022-10-11T14:06:56.586Z,58.88
2022-10-11T14:09:30.305Z,58.90
2022-10-11T14:12:28.352Z,59.36
2022-10-11T14:14:55.336Z,58.53
2022-10-11T14:17:37.451Z,58.51
2022-10-11T14:20:13.761Z,58.04
2022-10-11T14:22:40.653Z,58.52
2022-10-11T14:25:07.596Z,58.95
2022-10-11T14:27:34.892Z,58.91
2022-10-11T14:32:51.218Z,58.56
2022-10-11T14:35:21.596Z,58.04
2022-10-11T14:37:48.492Z,57.75
2022-10-11T14:40:22.726Z,58.20
2022-10-11T14:42:49.797Z,58.53
2022-10-11T14:45:17.825Z,59.00
2022-10-11T14:47:45.420Z,58.96
2022-10-11T14:50:39.407Z,59.03
2022-10-11T14:53:07.812Z,57.50
2022-10-11T14:55:39.096Z,57.71
2022-10-11T14:58:09.128Z,58.33
2022-10-11T15:00:36.820Z,58.87
2022-10-11T15:03:05.300Z,58.95
2022-10-11T15:05:34.229Z,58.97
2022-10-11T15:08:02.981Z,58.61
2022-10-11T15:10:36.231Z,58.20
2022-10-11T15:13:05.188Z,58.80
2022-10-11T15:15:35.481Z,59.39
2022-10-11T15:18:05.288Z,59.33
2022-10-11T15:20:41.759Z,59.76
2022-10-11T15:23:10.042Z,59.78
2022-10-11T15:25:39.282Z,59.08
2022-10-11T15:28:07.822Z,59.01
2022-10-11T15:30:40.972Z,59.08
2022-10-11T15:33:08.629Z,59.26
2022-10-11T15:35:35.706Z,59.32
2022-10-11T15:38:02.677Z,59.23
2022-10-11T15:40:35.558Z,58.77
2022-10-11T15:43:02.894Z,57.69
2022-10-11T15:45:30.073Z,57.69
2022-10-11T15:47:57.459Z,57.92
2022-10-11T15:50:39.283Z,57.07
2022-10-11T15:53:17.467Z,57.34
2022-10-11T15:55:46.925Z,57.44
2022-10-11T15:58:16.164Z,57.57
2022-10-11T16:00:44.790Z,56.50
2022-10-11T16:03:16.700Z,57.49
2022-10-11T16:05:44.287Z,58.56
2022-10-11T16:08:11.745Z,59.04
2022-10-11T16:10:39.648Z,60.06
2022-10-11T16:13:06.833Z,60.13
2022-10-11T16:15:35.078Z,59.47
2022-10-11T16:18:02.540Z,60.19
2022-10-11T16:20:29.504Z,59.71
2022-10-11T16:22:56.567Z,59.37
2022-10-11T16:25:23.989Z,59.42
2022-10-11T16:27:51.585Z,59.76
2022-10-11T16:30:20.252Z,59.12
2022-10-11T16:32:47.521Z,58.37
2022-10-11T16:35:16.293Z,57.75
2022-10-11T16:37:43.666Z,57.34
2022-10-11T16:40:12.083Z,57.70
2022-10-11T16:42:39.701Z,57.10
2022-10-11T16:45:07.125Z,57.34
2022-10-11T16:47:34.231Z,57.30
2022-10-11T16:50:01.157Z,56.97
2022-10-11T16:52:28.236Z,56.89
2022-10-11T16:54:55.432Z,56.04
2022-10-11T16:57:22.506Z,55.41
2022-10-11T16:59:49.534Z,54.63
2022-10-11T17:02:28.753Z,54.56
2022-10-11T17:04:59.221Z,54.23
2022-10-11T17:07:26.692Z,53.49
2022-10-11T17:09:53.758Z,53.36
2022-10-11T17:12:23.232Z,54.94
2022-10-11T17:14:50.725Z,55.48
2022-10-11T17:17:19.174Z,56.42
2022-10-11T17:19:47.703Z,56.86
2022-10-11T17:22:18.641Z,55.37
2022-10-11T17:24:46.020Z,54.49
2022-10-11T17:27:13.619Z,53.98
2022-10-11T17:29:40.554Z,54.03
2022-10-11T17:32:07.891Z,55.01
2022-10-11T17:34:35.078Z,55.10
2022-10-11T17:37:02.002Z,55.28
2022-10-11T17:39:29.087Z,55.46
2022-10-11T17:41:56.040Z,55.25
2022-10-11T17:44:23.226Z,55.79
2022-10-11T17:46:50.379Z,55.55
2022-10-11T17:49:17.361Z,54.91
2022-10-11T17:51:44.595Z,55.19
2022-10-11T17:54:13.099Z,55.06
2022-10-11T17:56:41.414Z,53.92
2022-10-11T17:59:14.507Z,54.01
2022-10-11T18:01:41.580Z,54.61
2022-10-11T18:04:13.639Z,56.05
2022-10-11T18:06:40.706Z,56.26
2022-10-11T18:09:07.799Z,56.82
2022-10-11T18:11:35.047Z,56.47
2022-10-11T18:14:01.967Z,55.33
2022-10-11T18:16:30.823Z,55.89
2022-10-11T18:18:58.636Z,54.76
2022-10-11T18:21:31.184Z,55.06
2022-10-11T18:24:02.493Z,54.59
2022-10-11T18:26:30.638Z,55.11
2022-10-11T18:28:58.636Z,56.46
2022-10-11T18:31:29.541Z,58.14
2022-10-11T18:33:57.284Z,57.92
2022-10-11T18:36:27.565Z,57.24
2022-10-11T18:38:56.886Z,56.87
2022-10-11T18:41:30.723Z,56.19
2022-10-11T18:44:00.347Z,55.72
2022-10-11T18:46:28.348Z,56.32
2022-10-11T18:48:56.565Z,56.40
2022-10-11T18:51:29.130Z,55.63
2022-10-11T18:53:58.969Z,55.80
2022-10-11T18:56:27.414Z,55.59
2022-10-11T18:58:56.235Z,55.26
2022-10-11T19:01:32.177Z,55.15
2022-10-11T19:04:01.231Z,56.32
2022-10-11T19:06:34.026Z,57.83
2022-10-11T19:09:00.854Z,57.64
2022-10-11T19:11:28.132Z,57.44
2022-10-11T19:14:00.556Z,57.66
2022-10-11T19:16:29.856Z,58.37
2022-10-11T19:18:57.849Z,59.33
2022-10-11T19:21:25.399Z,59.13
2022-10-11T19:23:52.830Z,59.18
2022-10-11T19:26:21.388Z,58.42
2022-10-11T19:28:48.974Z,60.24
2022-10-11T19:31:17.081Z,60.62
2022-10-11T19:33:45.438Z,61.03
2022-10-11T19:36:16.697Z,61.84
2022-10-11T19:38:46.276Z,61.54
2022-10-11T19:41:14.206Z,61.22
2022-10-11T19:43:41.148Z,61.85
2022-10-11T19:46:10.427Z,60.87
2022-10-11T19:48:39.467Z,60.96
2022-10-11T19:51:09.327Z,60.83
2022-10-11T19:53:36.308Z,59.80
2022-10-11T19:56:09.314Z,59.36
2022-10-11T19:58:37.079Z,58.95
2022-10-11T20:01:07.050Z,58.85
2022-10-11T20:03:34.490Z,59.04
2022-10-11T20:06:03.534Z,60.08
2022-10-11T20:08:31.470Z,61.07
2022-10-11T20:10:59.797Z,60.02
2022-10-11T20:13:31.200Z,58.40
2022-10-11T20:16:10.173Z,59.03
2022-10-11T20:18:38.340Z,58.21
2022-10-11T20:21:12.293Z,57.90
2022-10-11T20:26:15.177Z,58.66
2022-10-11T20:28:43.075Z,59.20
2022-10-11T20:31:18.989Z,58.57
2022-10-11T20:33:47.170Z,57.82
2022-10-11T20:36:16.738Z,57.47
2022-10-11T20:38:45.627Z,57.00
2022-10-11T20:41:15.014Z,56.62
2022-10-11T20:43:42.903Z,58.05
2022-10-11T20:46:12.717Z,58.90
2022-10-11T20:48:43.337Z,57.51
2022-10-11T20:51:11.387Z,57.30
2022-10-11T20:53:39.051Z,56.83
2022-10-11T20:56:10.798Z,56.52
2022-10-11T20:58:37.759Z,57.35
2022-10-11T21:01:16.091Z,58.47
2022-10-11T21:03:44.081Z,60.03
2022-10-11T21:06:11.797Z,60.87
2022-10-11T21:08:39.602Z,61.38
2022-10-11T21:11:07.545Z,61.96
2022-10-11T21:13:34.978Z,61.51
2022-10-11T21:16:12.009Z,61.37
2022-10-11T21:18:39.493Z,61.10
2022-10-11T21:21:11.535Z,62.22
2022-10-11T21:23:38.938Z,62.50
2022-10-11T21:26:08.733Z,62.67
2022-10-11T21:28:36.416Z,62.18
2022-10-11T21:31:08.936Z,61.05
2022-10-11T21:33:36.594Z,60.05
2022-10-11T21:36:08.753Z,59.75
2022-10-11T21:38:36.334Z,59.81
2022-10-11T21:41:08.849Z,61.03
2022-10-11T21:43:38.404Z,62.14
2022-10-11T21:46:18.756Z,61.84
2022-10-11T21:48:46.095Z,60.62
2022-10-11T21:51:24.776Z,60.71
2022-10-11T21:53:52.620Z,60.01
2022-10-11T21:56:20.090Z,61.48
2022-10-11T21:58:48.376Z,61.35
2022-10-11T22:01:16.221Z,61.95
2022-10-11T22:03:43.855Z,61.58
2022-10-11T22:06:11.136Z,60.99
2022-10-11T22:08:38.417Z,60.30
2022-10-11T22:11:05.655Z,60.22
2022-10-11T22:13:34.052Z,60.16
2022-10-11T22:16:06.173Z,59.34
2022-10-11T22:18:33.855Z,59.88
2022-10-11T22:21:09.884Z,60.50
2022-10-11T22:23:36.845Z,61.71
2022-10-11T22:26:12.147Z,63.76
2022-10-11T22:28:39.619Z,64.58
2022-10-11T22:31:07.833Z,65.13
2022-10-11T22:33:35.217Z,64.99
2022-10-11T22:36:04.005Z,64.96
2022-10-11T22:38:31.236Z,63.72
2022-10-11T22:40:58.995Z,63.98
2022-10-11T22:43:25.936Z,65.81
2022-10-11T22:45:52.855Z,65.58
2022-10-11T22:48:19.896Z,64.63
2022-10-11T22:50:47.213Z,64.55
2022-10-11T22:53:14.838Z,64.44
2022-10-11T22:55:42.020Z,63.21
2022-10-11T22:58:09.502Z,63.48
2022-10-11T23:00:37.018Z,64.20
2022-10-11T23:03:04.377Z,64.62
2022-10-11T23:05:31.298Z,64.33
2022-10-11T23:07:58.136Z,64.50
2022-10-11T23:10:25.027Z,65.93
2022-10-11T23:12:52.035Z,64.70
2022-10-11T23:15:19.077Z,65.22
2022-10-11T23:17:46.109Z,65.41
2022-10-11T23:20:13.200Z,66.42
2022-10-11T23:22:40.093Z,66.95
2022-10-11T23:25:07.709Z,67.85
2022-10-11T23:27:34.772Z,66.84
2022-10-11T23:30:01.894Z,65.79
2022-10-11T23:32:28.835Z,65.52
2022-10-11T23:34:55.798Z,64.46
2022-10-11T23:37:22.670Z,64.60
2022-10-11T23:39:49.549Z,65.68
2022-10-11T23:42:16.417Z,65.56
2022-10-11T23:44:43.311Z,65.13
2022-10-11T23:47:10.279Z,64.86
2022-10-11T23:49:37.137Z,65.24
2022-10-11T23:52:04.135Z,65.46
2022-10-11T23:54:31.089Z,65.66
2022-10-11T23:56:57.940Z,64.68
2022-10-11T23:59:24.826Z,66.23
